Johnson, Arizona
Current Conditions -  °F | °C
As of 1:55 PM on Tuesday 21 Oct 2014 (Local Time) from KFHU Reporting Station
Few Clouds Few Clouds  
Wind Chill: 73°   Ceiling: Unl
Heat Index: 73°   Visibility: 10mi
Dew Point: 39°   Wind: 5mph
Humidity: 29%   Direction: 320°NW
Pressure: 30.01"   Gusts: NA
Location:  32.0129°N, 110.105°W
Report Text: KFHU 212055Z 32004KT 10SM FEW070 FEW250 23/04 A3001 RMK SLP113 57019
Loading
Personal Weather Stations






























Interactive Weather Map
Tropical Storm Tracking
New forecast layout! Learn more

10-Day Weather Forecast

Advertisements
Track Severe Weather on mobile